sensor_id;sensor_type;location;lat;lon;timestamp;P1;durP1;ratioP1;P2;durP2;ratioP2
21521;SDS011;10922;45.572;10.002;2023-04-07T00:01:58;21.17;;;13.33;;
21521;SDS011;10922;45.572;10.002;2023-04-07T00:04:23;20.87;;;13.33;;
21521;SDS011;10922;45.572;10.002;2023-04-07T00:06:49;18.87;;;13.10;;
21521;SDS011;10922;45.572;10.002;2023-04-07T00:09:15;24.17;;;14.50;;
21521;SDS011;10922;45.572;10.002;2023-04-07T00:11:40;24.20;;;14.13;;
21521;SDS011;10922;45.572;10.002;2023-04-07T00:14:06;23.47;;;13.23;;
21521;SDS011;10922;45.572;10.002;2023-04-07T00:16:32;22.27;;;14.67;;
21521;SDS011;10922;45.572;10.002;2023-04-07T00:18:57;25.67;;;14.37;;
21521;SDS011;10922;45.572;10.002;2023-04-07T00:21:23;27.50;;;15.57;;
21521;SDS011;10922;45.572;10.002;2023-04-07T00:23:49;21.50;;;14.70;;
21521;SDS011;10922;45.572;10.002;2023-04-07T00:26:14;26.43;;;15.93;;
21521;SDS011;10922;45.572;10.002;2023-04-07T00:28:40;23.37;;;15.47;;
21521;SDS011;10922;45.572;10.002;2023-04-07T00:31:06;22.80;;;14.40;;
21521;SDS011;10922;45.572;10.002;2023-04-07T00:33:31;25.77;;;14.70;;
21521;SDS011;10922;45.572;10.002;2023-04-07T00:35:57;20.80;;;14.90;;
21521;SDS011;10922;45.572;10.002;2023-04-07T00:38:22;21.13;;;14.17;;
21521;SDS011;10922;45.572;10.002;2023-04-07T00:40:48;28.57;;;14.73;;
21521;SDS011;10922;45.572;10.002;2023-04-07T00:43:14;24.80;;;15.17;;
21521;SDS011;10922;45.572;10.002;2023-04-07T00:45:40;25.93;;;15.57;;
21521;SDS011;10922;45.572;10.002;2023-04-07T00:48:06;24.93;;;13.67;;
21521;SDS011;10922;45.572;10.002;2023-04-07T00:50:32;27.57;;;15.60;;
21521;SDS011;10922;45.572;10.002;2023-04-07T00:52:58;25.17;;;15.63;;
21521;SDS011;10922;45.572;10.002;2023-04-07T00:55:23;24.33;;;15.23;;
21521;SDS011;10922;45.572;10.002;2023-04-07T00:57:49;23.63;;;14.97;;
21521;SDS011;10922;45.572;10.002;2023-04-07T01:00:15;25.60;;;16.03;;
21521;SDS011;10922;45.572;10.002;2023-04-07T01:02:47;22.80;;;15.47;;
21521;SDS011;10922;45.572;10.002;2023-04-07T01:14:38;25.07;;;14.30;;
21521;SDS011;10922;45.572;10.002;2023-04-07T01:17:06;32.57;;;16.13;;
21521;SDS011;10922;45.572;10.002;2023-04-07T01:19:36;27.27;;;15.10;;
21521;SDS011;10922;45.572;10.002;2023-04-07T01:22:15;27.23;;;15.80;;
21521;SDS011;10922;45.572;10.002;2023-04-07T01:24:51;26.27;;;16.63;;
21521;SDS011;10922;45.572;10.002;2023-04-07T01:30:21;26.97;;;14.83;;
21521;SDS011;10922;45.572;10.002;2023-04-07T01:32:50;26.93;;;15.27;;
21521;SDS011;10922;45.572;10.002;2023-04-07T01:35:18;22.30;;;14.47;;
21521;SDS011;10922;45.572;10.002;2023-04-07T01:37:45;25.80;;;16.03;;
21521;SDS011;10922;45.572;10.002;2023-04-07T01:40:13;26.73;;;15.93;;
21521;SDS011;10922;45.572;10.002;2023-04-07T01:42:40;24.73;;;15.90;;
21521;SDS011;10922;45.572;10.002;2023-04-07T01:45:07;28.03;;;17.43;;
21521;SDS011;10922;45.572;10.002;2023-04-07T01:47:35;36.37;;;16.73;;
21521;SDS011;10922;45.572;10.002;2023-04-07T01:50:02;30.00;;;16.50;;
21521;SDS011;10922;45.572;10.002;2023-04-07T01:52:29;26.70;;;16.37;;
21521;SDS011;10922;45.572;10.002;2023-04-07T01:54:56;31.07;;;17.67;;
21521;SDS011;10922;45.572;10.002;2023-04-07T01:57:22;27.30;;;16.77;;
21521;SDS011;10922;45.572;10.002;2023-04-07T01:59:47;26.73;;;15.87;;
21521;SDS011;10922;45.572;10.002;2023-04-07T02:02:13;28.70;;;15.63;;
21521;SDS011;10922;45.572;10.002;2023-04-07T02:04:42;29.20;;;16.57;;
21521;SDS011;10922;45.572;10.002;2023-04-07T02:07:19;27.77;;;16.77;;
21521;SDS011;10922;45.572;10.002;2023-04-07T02:09:48;27.67;;;16.40;;
21521;SDS011;10922;45.572;10.002;2023-04-07T02:12:15;27.43;;;16.03;;
21521;SDS011;10922;45.572;10.002;2023-04-07T02:14:41;29.20;;;17.70;;
21521;SDS011;10922;45.572;10.002;2023-04-07T02:17:08;28.27;;;17.67;;
21521;SDS011;10922;45.572;10.002;2023-04-07T02:19:34;26.63;;;17.60;;
21521;SDS011;10922;45.572;10.002;2023-04-07T02:22:01;29.37;;;17.23;;
21521;SDS011;10922;45.572;10.002;2023-04-07T02:24:28;29.53;;;16.83;;
21521;SDS011;10922;45.572;10.002;2023-04-07T02:26:54;29.63;;;16.93;;
21521;SDS011;10922;45.572;10.002;2023-04-07T02:29:20;26.73;;;17.17;;
21521;SDS011;10922;45.572;10.002;2023-04-07T02:31:46;27.57;;;17.00;;
21521;SDS011;10922;45.572;10.002;2023-04-07T02:34:11;25.73;;;16.77;;
21521;SDS011;10922;45.572;10.002;2023-04-07T02:36:37;25.87;;;15.87;;
21521;SDS011;10922;45.572;10.002;2023-04-07T02:39:03;26.50;;;16.23;;
21521;SDS011;10922;45.572;10.002;2023-04-07T02:41:29;32.43;;;17.87;;
21521;SDS011;10922;45.572;10.002;2023-04-07T02:43:55;24.63;;;16.57;;
21521;SDS011;10922;45.572;10.002;2023-04-07T02:46:21;25.90;;;17.67;;
21521;SDS011;10922;45.572;10.002;2023-04-07T02:48:46;28.07;;;16.13;;
21521;SDS011;10922;45.572;10.002;2023-04-07T02:51:12;27.70;;;16.23;;
21521;SDS011;10922;45.572;10.002;2023-04-07T02:53:38;24.70;;;14.40;;
21521;SDS011;10922;45.572;10.002;2023-04-07T02:56:04;25.03;;;15.83;;
21521;SDS011;10922;45.572;10.002;2023-04-07T02:58:29;30.97;;;16.70;;
21521;SDS011;10922;45.572;10.002;2023-04-07T03:00:55;28.47;;;16.17;;
21521;SDS011;10922;45.572;10.002;2023-04-07T03:03:21;24.47;;;16.67;;
21521;SDS011;10922;45.572;10.002;2023-04-07T03:05:49;28.60;;;16.73;;
21521;SDS011;10922;45.572;10.002;2023-04-07T03:08:15;26.90;;;16.53;;
21521;SDS011;10922;45.572;10.002;2023-04-07T03:10:41;28.10;;;16.43;;
21521;SDS011;10922;45.572;10.002;2023-04-07T03:13:08;24.07;;;15.53;;
21521;SDS011;10922;45.572;10.002;2023-04-07T03:15:33;26.57;;;16.03;;
21521;SDS011;10922;45.572;10.002;2023-04-07T03:17:59;23.20;;;14.00;;
21521;SDS011;10922;45.572;10.002;2023-04-07T03:20:25;23.80;;;15.37;;
21521;SDS011;10922;45.572;10.002;2023-04-07T03:22:51;23.47;;;14.37;;
21521;SDS011;10922;45.572;10.002;2023-04-07T03:25:16;28.37;;;14.90;;
21521;SDS011;10922;45.572;10.002;2023-04-07T03:27:42;23.40;;;13.83;;
21521;SDS011;10922;45.572;10.002;2023-04-07T03:30:08;19.60;;;12.13;;
21521;SDS011;10922;45.572;10.002;2023-04-07T03:32:34;22.23;;;12.27;;
21521;SDS011;10922;45.572;10.002;2023-04-07T03:35:00;23.13;;;13.43;;
21521;SDS011;10922;45.572;10.002;2023-04-07T03:37:25;19.93;;;13.30;;
21521;SDS011;10922;45.572;10.002;2023-04-07T03:39:51;21.17;;;12.10;;
21521;SDS011;10922;45.572;10.002;2023-04-07T03:42:16;20.23;;;13.20;;
21521;SDS011;10922;45.572;10.002;2023-04-07T03:44:42;19.70;;;12.23;;
21521;SDS011;10922;45.572;10.002;2023-04-07T03:47:08;21.53;;;12.67;;
21521;SDS011;10922;45.572;10.002;2023-04-07T03:49:33;19.93;;;12.57;;
21521;SDS011;10922;45.572;10.002;2023-04-07T03:52:01;21.33;;;13.53;;
21521;SDS011;10922;45.572;10.002;2023-04-07T03:54:27;22.73;;;13.70;;
21521;SDS011;10922;45.572;10.002;2023-04-07T03:56:52;16.10;;;11.83;;
21521;SDS011;10922;45.572;10.002;2023-04-07T03:59:18;19.30;;;12.07;;
21521;SDS011;10922;45.572;10.002;2023-04-07T04:01:44;19.53;;;12.27;;
21521;SDS011;10922;45.572;10.002;2023-04-07T04:04:10;21.23;;;13.13;;
21521;SDS011;10922;45.572;10.002;2023-04-07T04:06:36;18.53;;;12.93;;
21521;SDS011;10922;45.572;10.002;2023-04-07T04:09:01;22.27;;;12.97;;
21521;SDS011;10922;45.572;10.002;2023-04-07T04:11:27;20.93;;;12.97;;
21521;SDS011;10922;45.572;10.002;2023-04-07T04:13:53;19.80;;;11.70;;
21521;SDS011;10922;45.572;10.002;2023-04-07T04:16:18;18.07;;;11.40;;
21521;SDS011;10922;45.572;10.002;2023-04-07T04:18:45;20.50;;;12.17;;
21521;SDS011;10922;45.572;10.002;2023-04-07T04:21:10;19.97;;;11.73;;
21521;SDS011;10922;45.572;10.002;2023-04-07T04:23:36;19.67;;;12.97;;
21521;SDS011;10922;45.572;10.002;2023-04-07T04:26:02;22.23;;;12.70;;
21521;SDS011;10922;45.572;10.002;2023-04-07T04:28:28;22.60;;;13.50;;
21521;SDS011;10922;45.572;10.002;2023-04-07T04:30:54;20.70;;;13.37;;
21521;SDS011;10922;45.572;10.002;2023-04-07T04:33:19;20.97;;;12.13;;
21521;SDS011;10922;45.572;10.002;2023-04-07T04:35:45;18.57;;;12.30;;
21521;SDS011;10922;45.572;10.002;2023-04-07T04:38:11;19.17;;;11.37;;
21521;SDS011;10922;45.572;10.002;2023-04-07T04:40:37;18.10;;;10.90;;
21521;SDS011;10922;45.572;10.002;2023-04-07T04:43:02;17.10;;;11.43;;
21521;SDS011;10922;45.572;10.002;2023-04-07T04:45:31;18.27;;;11.70;;
21521;SDS011;10922;45.572;10.002;2023-04-07T04:47:57;17.47;;;11.43;;
21521;SDS011;10922;45.572;10.002;2023-04-07T04:50:22;19.87;;;11.63;;
21521;SDS011;10922;45.572;10.002;2023-04-07T04:52:48;19.20;;;11.87;;
21521;SDS011;10922;45.572;10.002;2023-04-07T04:55:14;19.70;;;12.27;;
21521;SDS011;10922;45.572;10.002;2023-04-07T04:57:43;19.80;;;12.87;;
21521;SDS011;10922;45.572;10.002;2023-04-07T05:00:08;19.10;;;12.77;;
21521;SDS011;10922;45.572;10.002;2023-04-07T05:02:35;19.00;;;12.37;;
21521;SDS011;10922;45.572;10.002;2023-04-07T05:05:01;17.37;;;12.23;;
21521;SDS011;10922;45.572;10.002;2023-04-07T05:07:27;18.93;;;11.57;;
21521;SDS011;10922;45.572;10.002;2023-04-07T05:09:53;20.37;;;11.67;;
21521;SDS011;10922;45.572;10.002;2023-04-07T05:12:19;20.70;;;11.77;;
21521;SDS011;10922;45.572;10.002;2023-04-07T05:14:45;21.23;;;11.80;;
21521;SDS011;10922;45.572;10.002;2023-04-07T05:17:11;19.70;;;12.67;;
21521;SDS011;10922;45.572;10.002;2023-04-07T05:19:37;21.83;;;12.03;;
21521;SDS011;10922;45.572;10.002;2023-04-07T05:22:02;19.77;;;11.90;;
21521;SDS011;10922;45.572;10.002;2023-04-07T05:24:28;16.80;;;11.37;;
21521;SDS011;10922;45.572;10.002;2023-04-07T05:26:54;15.13;;;10.30;;
21521;SDS011;10922;45.572;10.002;2023-04-07T05:29:21;18.00;;;11.93;;
21521;SDS011;10922;45.572;10.002;2023-04-07T05:31:47;17.17;;;11.17;;
21521;SDS011;10922;45.572;10.002;2023-04-07T05:34:14;20.17;;;12.30;;
21521;SDS011;10922;45.572;10.002;2023-04-07T05:36:40;20.60;;;10.87;;
21521;SDS011;10922;45.572;10.002;2023-04-07T05:39:06;20.40;;;10.93;;
21521;SDS011;10922;45.572;10.002;2023-04-07T05:41:31;22.53;;;11.87;;
21521;SDS011;10922;45.572;10.002;2023-04-07T05:43:57;19.83;;;12.70;;
21521;SDS011;10922;45.572;10.002;2023-04-07T05:46:23;16.43;;;12.17;;
21521;SDS011;10922;45.572;10.002;2023-04-07T05:48:48;17.53;;;12.00;;
21521;SDS011;10922;45.572;10.002;2023-04-07T05:51:14;24.10;;;12.57;;
21521;SDS011;10922;45.572;10.002;2023-04-07T05:53:40;17.93;;;12.10;;
21521;SDS011;10922;45.572;10.002;2023-04-07T05:56:05;19.53;;;12.00;;
21521;SDS011;10922;45.572;10.002;2023-04-07T05:58:31;19.30;;;12.33;;
21521;SDS011;10922;45.572;10.002;2023-04-07T06:00:57;23.67;;;12.63;;
21521;SDS011;10922;45.572;10.002;2023-04-07T06:03:22;19.60;;;12.43;;
21521;SDS011;10922;45.572;10.002;2023-04-07T06:05:48;19.70;;;13.23;;
21521;SDS011;10922;45.572;10.002;2023-04-07T06:08:14;20.33;;;13.87;;
21521;SDS011;10922;45.572;10.002;2023-04-07T06:10:40;20.53;;;12.83;;
21521;SDS011;10922;45.572;10.002;2023-04-07T06:13:06;19.00;;;13.40;;
21521;SDS011;10922;45.572;10.002;2023-04-07T06:15:31;20.40;;;13.37;;
21521;SDS011;10922;45.572;10.002;2023-04-07T06:17:57;27.13;;;14.73;;
21521;SDS011;10922;45.572;10.002;2023-04-07T06:20:23;23.00;;;13.67;;
21521;SDS011;10922;45.572;10.002;2023-04-07T06:22:51;23.87;;;14.23;;
21521;SDS011;10922;45.572;10.002;2023-04-07T06:25:17;22.53;;;13.97;;
21521;SDS011;10922;45.572;10.002;2023-04-07T06:27:43;32.17;;;14.97;;
21521;SDS011;10922;45.572;10.002;2023-04-07T06:30:09;25.20;;;14.07;;
21521;SDS011;10922;45.572;10.002;2023-04-07T06:32:35;23.13;;;13.57;;
21521;SDS011;10922;45.572;10.002;2023-04-07T06:35:01;24.10;;;13.27;;
21521;SDS011;10922;45.572;10.002;2023-04-07T06:37:27;20.20;;;13.47;;
21521;SDS011;10922;45.572;10.002;2023-04-07T06:39:53;26.03;;;13.50;;
21521;SDS011;10922;45.572;10.002;2023-04-07T06:42:18;21.43;;;13.13;;
21521;SDS011;10922;45.572;10.002;2023-04-07T06:44:44;21.53;;;13.63;;
21521;SDS011;10922;45.572;10.002;2023-04-07T06:47:10;23.00;;;13.17;;
21521;SDS011;10922;45.572;10.002;2023-04-07T06:49:36;22.63;;;14.00;;
21521;SDS011;10922;45.572;10.002;2023-04-07T06:52:01;20.10;;;12.93;;
21521;SDS011;10922;45.572;10.002;2023-04-07T06:54:28;18.23;;;12.90;;
21521;SDS011;10922;45.572;10.002;2023-04-07T06:56:53;18.23;;;12.67;;
21521;SDS011;10922;45.572;10.002;2023-04-07T06:59:20;18.33;;;12.67;;
21521;SDS011;10922;45.572;10.002;2023-04-07T07:01:46;23.60;;;13.37;;
21521;SDS011;10922;45.572;10.002;2023-04-07T07:04:13;20.53;;;13.07;;
21521;SDS011;10922;45.572;10.002;2023-04-07T07:06:38;18.53;;;12.40;;
21521;SDS011;10922;45.572;10.002;2023-04-07T07:09:04;20.67;;;13.27;;
21521;SDS011;10922;45.572;10.002;2023-04-07T07:11:30;20.40;;;12.63;;
21521;SDS011;10922;45.572;10.002;2023-04-07T07:13:56;18.40;;;12.97;;
21521;SDS011;10922;45.572;10.002;2023-04-07T07:16:21;20.33;;;13.10;;
21521;SDS011;10922;45.572;10.002;2023-04-07T07:18:50;20.90;;;13.63;;
21521;SDS011;10922;45.572;10.002;2023-04-07T07:21:19;18.80;;;12.67;;
21521;SDS011;10922;45.572;10.002;2023-04-07T07:23:45;22.10;;;14.53;;
21521;SDS011;10922;45.572;10.002;2023-04-07T07:26:11;22.83;;;13.27;;
21521;SDS011;10922;45.572;10.002;2023-04-07T07:28:36;18.73;;;14.37;;
21521;SDS011;10922;45.572;10.002;2023-04-07T07:31:11;19.33;;;13.40;;
21521;SDS011;10922;45.572;10.002;2023-04-07T07:33:39;20.47;;;14.10;;
21521;SDS011;10922;45.572;10.002;2023-04-07T07:36:08;22.57;;;14.83;;
21521;SDS011;10922;45.572;10.002;2023-04-07T07:38:34;28.30;;;15.20;;
21521;SDS011;10922;45.572;10.002;2023-04-07T07:41:03;26.07;;;15.27;;
21521;SDS011;10922;45.572;10.002;2023-04-07T07:43:30;25.57;;;15.77;;
21521;SDS011;10922;45.572;10.002;2023-04-07T07:45:59;22.23;;;15.07;;
21521;SDS011;10922;45.572;10.002;2023-04-07T07:48:28;28.30;;;16.33;;
21521;SDS011;10922;45.572;10.002;2023-04-07T07:50:56;24.70;;;17.13;;
21521;SDS011;10922;45.572;10.002;2023-04-07T07:53:22;24.70;;;17.83;;
21521;SDS011;10922;45.572;10.002;2023-04-07T07:55:48;25.20;;;17.40;;
21521;SDS011;10922;45.572;10.002;2023-04-07T07:58:13;27.70;;;18.10;;
21521;SDS011;10922;45.572;10.002;2023-04-07T08:00:40;25.03;;;16.57;;
21521;SDS011;10922;45.572;10.002;2023-04-07T08:03:05;23.47;;;16.17;;
21521;SDS011;10922;45.572;10.002;2023-04-07T08:05:31;21.23;;;15.67;;
21521;SDS011;10922;45.572;10.002;2023-04-07T08:08:03;20.17;;;15.27;;
21521;SDS011;10922;45.572;10.002;2023-04-07T08:10:29;23.67;;;16.20;;
21521;SDS011;10922;45.572;10.002;2023-04-07T08:12:54;31.20;;;16.50;;
21521;SDS011;10922;45.572;10.002;2023-04-07T08:15:23;23.97;;;17.00;;
21521;SDS011;10922;45.572;10.002;2023-04-07T08:17:49;23.47;;;16.57;;
21521;SDS011;10922;45.572;10.002;2023-04-07T08:20:15;22.13;;;17.53;;
21521;SDS011;10922;45.572;10.002;2023-04-07T08:22:41;26.70;;;17.87;;
21521;SDS011;10922;45.572;10.002;2023-04-07T08:25:07;22.83;;;16.90;;
21521;SDS011;10922;45.572;10.002;2023-04-07T08:27:33;29.37;;;17.97;;
21521;SDS011;10922;45.572;10.002;2023-04-07T08:30:02;28.33;;;18.00;;
21521;SDS011;10922;45.572;10.002;2023-04-07T08:32:35;25.10;;;17.10;;
21521;SDS011;10922;45.572;10.002;2023-04-07T08:35:05;26.70;;;18.20;;
21521;SDS011;10922;45.572;10.002;2023-04-07T08:37:35;23.33;;;17.17;;
21521;SDS011;10922;45.572;10.002;2023-04-07T08:40:07;24.20;;;17.63;;
21521;SDS011;10922;45.572;10.002;2023-04-07T08:42:39;25.63;;;18.53;;
21521;SDS011;10922;45.572;10.002;2023-04-07T08:45:07;27.67;;;18.63;;
21521;SDS011;10922;45.572;10.002;2023-04-07T08:47:34;23.93;;;18.37;;
21521;SDS011;10922;45.572;10.002;2023-04-07T08:50:02;26.67;;;19.57;;
21521;SDS011;10922;45.572;10.002;2023-04-07T08:55:10;28.73;;;18.77;;
21521;SDS011;10922;45.572;10.002;2023-04-07T08:57:36;24.23;;;17.17;;
21521;SDS011;10922;45.572;10.002;2023-04-07T09:00:02;24.43;;;17.80;;
21521;SDS011;10922;45.572;10.002;2023-04-07T09:02:34;25.63;;;18.43;;
21521;SDS011;10922;45.572;10.002;2023-04-07T09:05:09;28.50;;;18.07;;
21521;SDS011;10922;45.572;10.002;2023-04-07T09:07:39;26.23;;;18.97;;
21521;SDS011;10922;45.572;10.002;2023-04-07T09:10:07;24.47;;;18.67;;
21521;SDS011;10922;45.572;10.002;2023-04-07T09:12:35;21.60;;;17.37;;
21521;SDS011;10922;45.572;10.002;2023-04-07T09:15:01;23.53;;;16.90;;
21521;SDS011;10922;45.572;10.002;2023-04-07T09:17:29;25.67;;;18.30;;
21521;SDS011;10922;45.572;10.002;2023-04-07T09:19:55;24.47;;;17.47;;
21521;SDS011;10922;45.572;10.002;2023-04-07T09:22:39;23.43;;;17.27;;
21521;SDS011;10922;45.572;10.002;2023-04-07T09:25:17;23.83;;;18.20;;
21521;SDS011;10922;45.572;10.002;2023-04-07T09:27:58;34.87;;;18.17;;
21521;SDS011;10922;45.572;10.002;2023-04-07T09:30:26;28.97;;;18.27;;
21521;SDS011;10922;45.572;10.002;2023-04-07T09:32:56;24.63;;;17.67;;
21521;SDS011;10922;45.572;10.002;2023-04-07T09:35:25;24.70;;;18.30;;
21521;SDS011;10922;45.572;10.002;2023-04-07T09:38:08;24.90;;;18.87;;
21521;SDS011;10922;45.572;10.002;2023-04-07T09:40:34;27.60;;;18.93;;
21521;SDS011;10922;45.572;10.002;2023-04-07T09:43:02;25.20;;;18.77;;
21521;SDS011;10922;45.572;10.002;2023-04-07T09:45:29;22.20;;;18.43;;
21521;SDS011;10922;45.572;10.002;2023-04-07T09:47:56;26.73;;;18.97;;
21521;SDS011;10922;45.572;10.002;2023-04-07T09:50:32;27.53;;;19.27;;
21521;SDS011;10922;45.572;10.002;2023-04-07T09:53:05;26.27;;;18.73;;
21521;SDS011;10922;45.572;10.002;2023-04-07T09:55:31;28.87;;;18.93;;
21521;SDS011;10922;45.572;10.002;2023-04-07T09:57:57;27.50;;;19.73;;
21521;SDS011;10922;45.572;10.002;2023-04-07T10:00:24;30.70;;;20.20;;
21521;SDS011;10922;45.572;10.002;2023-04-07T10:02:50;27.30;;;19.90;;
21521;SDS011;10922;45.572;10.002;2023-04-07T10:05:17;29.67;;;20.50;;
21521;SDS011;10922;45.572;10.002;2023-04-07T10:07:45;29.37;;;20.20;;
21521;SDS011;10922;45.572;10.002;2023-04-07T10:10:11;28.10;;;20.30;;
21521;SDS011;10922;45.572;10.002;2023-04-07T10:12:37;35.57;;;19.67;;
21521;SDS011;10922;45.572;10.002;2023-04-07T10:15:11;26.17;;;18.77;;
21521;SDS011;10922;45.572;10.002;2023-04-07T10:17:40;26.50;;;19.03;;
21521;SDS011;10922;45.572;10.002;2023-04-07T10:20:11;27.60;;;18.73;;
21521;SDS011;10922;45.572;10.002;2023-04-07T10:22:40;27.67;;;19.77;;
21521;SDS011;10922;45.572;10.002;2023-04-07T10:25:07;28.20;;;18.53;;
21521;SDS011;10922;45.572;10.002;2023-04-07T10:30:05;28.97;;;19.13;;
21521;SDS011;10922;45.572;10.002;2023-04-07T10:32:54;29.20;;;19.23;;
21521;SDS011;10922;45.572;10.002;2023-04-07T10:35:21;28.80;;;20.17;;
21521;SDS011;10922;45.572;10.002;2023-04-07T10:40:31;28.93;;;19.40;;
21521;SDS011;10922;45.572;10.002;2023-04-07T10:42:57;27.93;;;19.37;;
21521;SDS011;10922;45.572;10.002;2023-04-07T10:48:14;28.50;;;19.00;;
21521;SDS011;10922;45.572;10.002;2023-04-07T10:50:41;25.73;;;19.60;;
21521;SDS011;10922;45.572;10.002;2023-04-07T10:53:08;28.37;;;20.93;;
21521;SDS011;10922;45.572;10.002;2023-04-07T10:58:25;29.17;;;19.33;;
21521;SDS011;10922;45.572;10.002;2023-04-07T11:03:39;29.27;;;18.33;;
21521;SDS011;10922;45.572;10.002;2023-04-07T11:06:12;23.73;;;17.97;;
21521;SDS011;10922;45.572;10.002;2023-04-07T11:08:48;28.03;;;20.27;;
21521;SDS011;10922;45.572;10.002;2023-04-07T11:11:33;25.63;;;18.13;;
21521;SDS011;10922;45.572;10.002;2023-04-07T11:14:06;22.17;;;18.07;;
21521;SDS011;10922;45.572;10.002;2023-04-07T11:19:53;24.87;;;18.00;;
21521;SDS011;10922;45.572;10.002;2023-04-07T11:22:18;25.90;;;18.43;;
21521;SDS011;10922;45.572;10.002;2023-04-07T11:24:45;28.50;;;18.27;;
21521;SDS011;10922;45.572;10.002;2023-04-07T11:27:11;27.53;;;17.77;;
21521;SDS011;10922;45.572;10.002;2023-04-07T11:29:37;26.87;;;19.00;;
21521;SDS011;10922;45.572;10.002;2023-04-07T11:32:03;22.87;;;18.23;;
21521;SDS011;10922;45.572;10.002;2023-04-07T11:34:33;24.63;;;18.07;;
21521;SDS011;10922;45.572;10.002;2023-04-07T11:39:56;25.90;;;17.23;;
21521;SDS011;10922;45.572;10.002;2023-04-07T11:42:37;25.60;;;17.20;;
21521;SDS011;10922;45.572;10.002;2023-04-07T11:48:28;24.67;;;16.93;;
21521;SDS011;10922;45.572;10.002;2023-04-07T11:50:54;22.43;;;16.30;;
21521;SDS011;10922;45.572;10.002;2023-04-07T11:53:24;26.23;;;17.53;;
21521;SDS011;10922;45.572;10.002;2023-04-07T11:56:00;20.03;;;15.80;;
21521;SDS011;10922;45.572;10.002;2023-04-07T11:58:26;23.80;;;16.80;;
21521;SDS011;10922;45.572;10.002;2023-04-07T12:00:54;20.43;;;15.87;;
21521;SDS011;10922;45.572;10.002;2023-04-07T12:03:21;22.97;;;16.87;;
21521;SDS011;10922;45.572;10.002;2023-04-07T12:05:47;21.80;;;16.23;;
21521;SDS011;10922;45.572;10.002;2023-04-07T12:08:13;20.23;;;15.87;;
21521;SDS011;10922;45.572;10.002;2023-04-07T12:10:40;21.93;;;15.47;;
21521;SDS011;10922;45.572;10.002;2023-04-07T12:13:07;23.20;;;14.73;;
21521;SDS011;10922;45.572;10.002;2023-04-07T12:15:34;23.30;;;16.47;;
21521;SDS011;10922;45.572;10.002;2023-04-07T12:18:01;20.20;;;14.47;;
21521;SDS011;10922;45.572;10.002;2023-04-07T12:20:27;18.50;;;12.97;;
21521;SDS011;10922;45.572;10.002;2023-04-07T12:22:53;17.77;;;12.73;;
21521;SDS011;10922;45.572;10.002;2023-04-07T12:25:19;16.13;;;12.97;;
21521;SDS011;10922;45.572;10.002;2023-04-07T12:27:45;17.20;;;12.03;;
21521;SDS011;10922;45.572;10.002;2023-04-07T12:30:11;16.27;;;11.80;;
21521;SDS011;10922;45.572;10.002;2023-04-07T12:32:37;17.17;;;12.83;;
21521;SDS011;10922;45.572;10.002;2023-04-07T12:35:03;16.17;;;12.77;;
21521;SDS011;10922;45.572;10.002;2023-04-07T12:37:33;18.30;;;12.27;;
21521;SDS011;10922;45.572;10.002;2023-04-07T12:40:01;17.63;;;13.20;;
21521;SDS011;10922;45.572;10.002;2023-04-07T12:42:30;17.23;;;13.07;;
21521;SDS011;10922;45.572;10.002;2023-04-07T12:44:55;17.00;;;12.40;;
21521;SDS011;10922;45.572;10.002;2023-04-07T12:47:21;17.73;;;13.20;;
21521;SDS011;10922;45.572;10.002;2023-04-07T12:49:47;17.80;;;13.17;;
21521;SDS011;10922;45.572;10.002;2023-04-07T12:52:12;16.53;;;12.90;;
21521;SDS011;10922;45.572;10.002;2023-04-07T12:54:38;16.77;;;13.23;;
21521;SDS011;10922;45.572;10.002;2023-04-07T12:57:04;21.53;;;14.33;;
21521;SDS011;10922;45.572;10.002;2023-04-07T12:59:32;20.97;;;15.03;;
21521;SDS011;10922;45.572;10.002;2023-04-07T13:01:58;18.03;;;14.93;;
21521;SDS011;10922;45.572;10.002;2023-04-07T13:04:24;18.53;;;14.13;;
21521;SDS011;10922;45.572;10.002;2023-04-07T13:06:50;20.50;;;15.00;;
21521;SDS011;10922;45.572;10.002;2023-04-07T13:09:16;25.13;;;14.57;;
21521;SDS011;10922;45.572;10.002;2023-04-07T13:11:42;26.20;;;16.00;;
21521;SDS011;10922;45.572;10.002;2023-04-07T13:14:07;22.13;;;15.37;;
21521;SDS011;10922;45.572;10.002;2023-04-07T13:16:33;19.73;;;15.13;;
21521;SDS011;10922;45.572;10.002;2023-04-07T13:18:59;19.53;;;15.20;;
21521;SDS011;10922;45.572;10.002;2023-04-07T13:21:24;17.17;;;14.67;;
21521;SDS011;10922;45.572;10.002;2023-04-07T13:23:51;19.77;;;14.77;;
21521;SDS011;10922;45.572;10.002;2023-04-07T13:26:20;18.80;;;14.67;;
21521;SDS011;10922;45.572;10.002;2023-04-07T13:28:46;20.80;;;14.93;;
21521;SDS011;10922;45.572;10.002;2023-04-07T13:31:12;21.57;;;14.63;;
21521;SDS011;10922;45.572;10.002;2023-04-07T13:33:40;21.40;;;15.60;;
21521;SDS011;10922;45.572;10.002;2023-04-07T13:36:09;22.57;;;16.73;;
21521;SDS011;10922;45.572;10.002;2023-04-07T13:38:34;20.00;;;15.80;;
21521;SDS011;10922;45.572;10.002;2023-04-07T13:41:03;19.52;;;15.30;;
21521;SDS011;10922;45.572;10.002;2023-04-07T13:43:29;20.77;;;15.50;;
21521;SDS011;10922;45.572;10.002;2023-04-07T13:45:54;21.73;;;16.13;;
21521;SDS011;10922;45.572;10.002;2023-04-07T13:48:23;20.08;;;15.27;;
21521;SDS011;10922;45.572;10.002;2023-04-07T13:50:48;21.13;;;14.75;;
21521;SDS011;10922;45.572;10.002;2023-04-07T13:53:14;24.92;;;16.33;;
21521;SDS011;10922;45.572;10.002;2023-04-07T13:55:40;19.50;;;14.65;;
21521;SDS011;10922;45.572;10.002;2023-04-07T13:58:06;21.30;;;15.32;;
21521;SDS011;10922;45.572;10.002;2023-04-07T14:00:32;20.05;;;14.85;;
21521;SDS011;10922;45.572;10.002;2023-04-07T14:02:59;20.98;;;15.70;;
21521;SDS011;10922;45.572;10.002;2023-04-07T14:05:25;17.73;;;14.48;;
21521;SDS011;10922;45.572;10.002;2023-04-07T14:07:51;18.17;;;14.18;;
21521;SDS011;10922;45.572;10.002;2023-04-07T14:10:18;19.73;;;15.63;;
21521;SDS011;10922;45.572;10.002;2023-04-07T14:12:44;18.92;;;15.10;;
21521;SDS011;10922;45.572;10.002;2023-04-07T14:15:10;20.85;;;15.48;;
21521;SDS011;10922;45.572;10.002;2023-04-07T14:17:36;24.13;;;17.20;;
21521;SDS011;10922;45.572;10.002;2023-04-07T14:20:01;23.55;;;15.57;;
21521;SDS011;10922;45.572;10.002;2023-04-07T14:22:27;21.38;;;16.63;;
21521;SDS011;10922;45.572;10.002;2023-04-07T14:24:54;21.23;;;14.85;;
21521;SDS011;10922;45.572;10.002;2023-04-07T14:27:20;17.42;;;13.73;;
21521;SDS011;10922;45.572;10.002;2023-04-07T14:32:37;20.92;;;13.43;;
21521;SDS011;10922;45.572;10.002;2023-04-07T14:35:03;18.30;;;14.82;;
21521;SDS011;10922;45.572;10.002;2023-04-07T14:37:29;18.83;;;14.32;;
21521;SDS011;10922;45.572;10.002;2023-04-07T14:39:54;17.55;;;14.75;;
21521;SDS011;10922;45.572;10.002;2023-04-07T14:42:20;16.35;;;13.73;;
21521;SDS011;10922;45.572;10.002;2023-04-07T14:44:46;20.13;;;15.48;;
21521;SDS011;10922;45.572;10.002;2023-04-07T14:47:13;19.77;;;14.65;;
21521;SDS011;10922;45.572;10.002;2023-04-07T14:49:39;18.53;;;14.50;;